Terminal Aerodrome Forecast
Issued by NWS

Home | Current Version | Previous Version | Text Only | Print | Product List | Glossary On
Versions: 1 2 3 4 5 6 7 8 9 10 11 12 13 14 15 16 17
879
FTUS43 KGRB 260652 AAA
TAFAUW
TAF AMD
KAUW 260652Z 2607/2706 19006KT P6SM BKN035 WS020/23035KT
      TEMPO 2607/2609 3SM -TSRA BKN035CB
     FM260900 20005KT P6SM VCSH OVC035 WS020/24035KT
     FM261200 21006KT 6SM -TSRA SCT025 OVC035CB
     FM261500 24006KT P6SM -SHRA BKN025
     FM261900 26006KT P6SM BKN030 OVC150
     FM270000 32004KT P6SM SCT030 BKN150=

USA.gov is the U.S. government's official web portal to all federal, state and local government web resources and services.